Time;durP1;ratioP1;P1;durP2;ratioP2;P2;SDS_P1;SDS_P2;PMS_P1;PMS_P2;Temp;Humidity;BMP_temperature;BMP_pressure;BME280_temperature;BME280_humidity;BME280_pressure;Samples;Min_cycle;Max_cycle;Signal;HPM_P1;HPM_P2
2021/12/29 06:08:31;;;;;;;21.75;12.68;;;;;;;5.81;89.24;99666.94;5612243;31;80190;-58
2021/12/29 06:11:34;;;;;;;22.02;12.93;;;;;;;5.81;89.24;99666.94;5603989;31;33372;-58
2021/12/29 06:14:36;;;;;;;24.25;12.57;;;;;;;5.73;92.55;99672.81;5604817;31;33285;-58
2021/12/29 06:17:39;;;;;;;22.52;13.50;;;;;;;5.84;74.15;99666.41;5603811;31;33670;-58
2021/12/29 06:20:41;;;;;;;18.10;11.68;;;;;;;5.28;73.30;99678.84;5598013;31;34491;-58
2021/12/29 06:23:45;;;;;;;20.95;12.02;;;;;;;5.26;72.49;99679.06;5600583;31;33566;-58
2021/12/29 06:26:47;;;;;;;20.60;12.82;;;;;;;5.05;78.24;99678.22;5605867;31;34506;-58
2021/12/29 06:29:50;;;;;;;20.58;12.88;;;;;;;5.04;73.50;99673.97;5605754;31;33908;-59
2021/12/29 06:32:52;;;;;;;20.75;13.40;;;;;;;5.01;75.14;99687.78;5604246;31;33440;-58
2021/12/29 06:35:54;;;;;;;19.20;11.48;;;;;;;5.09;73.08;99689.94;5603810;31;33840;-59
2021/12/29 06:38:57;;;;;;;21.85;12.95;;;;;;;5.04;73.13;99684.59;5590742;31;33181;-58
2021/12/29 06:41:59;;;;;;;22.45;13.05;;;;;;;4.85;74.37;99683.47;5585315;32;33622;-58
2021/12/29 06:45:02;;;;;;;19.37;12.57;;;;;;;5.05;75.42;99683.53;5585827;32;33112;-58
2021/12/29 06:48:05;;;;;;;21.77;13.73;;;;;;;5.12;74.72;99688.59;5585205;31;33763;-58
2021/12/29 06:51:07;;;;;;;20.98;13.32;;;;;;;5.26;73.67;99695.03;5586160;31;34212;-58
2021/12/29 06:54:09;;;;;;;17.85;11.40;;;;;;;5.21;72.83;99702.19;5584647;31;33830;-58
2021/12/29 06:57:12;;;;;;;20.17;11.25;;;;;;;5.06;72.92;99703.72;5585055;31;34351;-58
2021/12/29 07:00:15;;;;;;;18.27;11.20;;;;;;;4.89;72.94;99700.47;5597183;31;33618;-58
2021/12/29 07:03:17;;;;;;;17.23;10.88;;;;;;;4.95;74.12;99710.06;5604794;31;33827;-58
2021/12/29 07:06:19;;;;;;;18.20;11.63;;;;;;;4.95;72.64;99710.84;5604313;31;34360;-58
2021/12/29 07:09:22;;;;;;;17.48;11.05;;;;;;;5.24;81.59;99712.31;5603427;31;33638;-58
2021/12/29 07:12:25;;;;;;;16.17;10.70;;;;;;;5.73;86.05;99717.19;5584481;31;33924;-58
2021/12/29 07:15:27;;;;;;;16.52;10.55;;;;;;;5.49;71.20;99711.56;5584731;31;34207;-58
2021/12/29 07:18:30;;;;;;;15.95;10.98;;;;;;;5.21;71.18;99718.16;5577679;32;33578;-58
2021/12/29 07:21:32;;;;;;;17.73;11.10;;;;;;;5.03;71.92;99722.03;5589005;31;33777;-58
2021/12/29 07:24:35;;;;;;;19.80;12.15;;;;;;;4.90;74.46;99726.78;5591172;31;33532;-58
2021/12/29 07:27:37;;;;;;;17.37;11.80;;;;;;;5.37;80.37;99725.09;5592081;31;33461;-58
2021/12/29 07:30:39;;;;;;;15.10;10.80;;;;;;;5.38;74.82;99738.12;5591591;31;34229;-58
2021/12/29 07:33:42;;;;;;;15.40;10.65;;;;;;;5.25;70.80;99740.47;5592483;31;33746;-58
2021/12/29 07:36:44;;;;;;;18.23;11.10;;;;;;;5.55;83.40;99750.41;5592276;31;33743;-58
2021/12/29 07:39:46;;;;;;;17.98;11.25;;;;;;;5.17;77.52;99742.56;5590845;31;33502;-58
2021/12/29 07:42:49;;;;;;;15.77;11.02;;;;;;;5.66;79.92;99760.00;5580394;31;33623;-59
2021/12/29 07:45:54;;;;;;;16.52;11.77;;;;;;;5.86;73.16;99759.22;5572982;32;34590;-58
2021/12/29 07:48:56;;;;;;;16.58;11.52;;;;;;;5.69;84.52;99756.00;5572980;32;34343;-58
2021/12/29 07:51:58;;;;;;;18.08;11.82;;;;;;;5.54;76.00;99762.91;5591994;31;33633;-58
2021/12/29 07:55:01;;;;;;;17.48;11.88;;;;;;;6.05;81.30;99772.87;5583703;31;33665;-58
2021/12/29 07:58:03;;;;;;;17.48;12.32;;;;;;;5.87;71.23;99777.59;5572540;32;33680;-59
2021/12/29 08:01:06;;;;;;;17.85;11.82;;;;;;;5.70;76.40;99766.41;5573411;32;34348;-58
2021/12/29 08:04:14;;;;;;;17.70;12.05;;;;;;;5.67;72.39;99769.59;5576556;31;34138;-58
2021/12/29 08:07:16;;;;;;;18.90;12.43;;;;;;;5.49;72.51;99762.88;5576494;31;33814;-58
2021/12/29 08:10:18;;;;;;;18.23;12.02;;;;;;;5.51;71.70;99762.63;5568472;31;33619;-59
2021/12/29 08:13:21;;;;;;;17.05;12.40;;;;;;;5.25;72.91;99770.50;5572511;32;33296;-59
2021/12/29 08:16:23;;;;;;;19.08;13.30;;;;;;;5.22;72.90;99760.38;5573843;31;34027;-58
2021/12/29 08:19:25;;;;;;;18.98;12.50;;;;;;;5.44;72.22;99764.72;5573169;31;34306;-58
2021/12/29 08:22:28;;;;;;;15.98;11.82;;;;;;;5.49;70.57;99775.38;5572760;32;33408;-58
2021/12/29 08:25:31;;;;;;;17.05;11.82;;;;;;;5.51;70.46;99778.56;5573045;32;34264;-59
2021/12/29 08:28:33;;;;;;;18.70;12.18;;;;;;;5.45;71.30;99780.41;5572797;31;34072;-59
2021/12/29 08:31:35;;;;;;;17.05;11.63;;;;;;;5.33;76.46;99778.00;5571698;32;33895;-58
2021/12/29 08:34:37;;;;;;;16.92;11.52;;;;;;;5.37;72.17;99776.41;5575008;31;33283;-58
2021/12/29 08:37:40;;;;;;;16.83;12.18;;;;;;;5.45;71.77;99785.72;5592035;31;33178;-58
2021/12/29 08:40:43;;;;;;;15.93;10.85;;;;;;;5.49;72.91;99789.47;5590727;31;34418;-58
2021/12/29 08:43:47;;;;;;;18.55;12.80;;;;;;;5.64;71.75;99799.34;5573592;31;34046;-58
2021/12/29 08:46:49;;;;;;;20.10;13.10;;;;;;;5.61;72.39;99803.34;5572845;31;34371;-59
2021/12/29 08:49:52;;;;;;;19.73;13.38;;;;;;;5.56;75.98;99795.34;5577095;31;33566;-58
2021/12/29 08:52:54;;;;;;;20.15;13.82;;;;;;;5.69;73.39;99804.69;5592018;31;33785;-58
2021/12/29 08:55:57;;;;;;;19.73;13.77;;;;;;;5.61;73.35;99813.97;5591203;31;33840;-58
2021/12/29 08:58:59;;;;;;;21.92;14.48;;;;;;;5.50;79.38;99816.88;5592873;31;33738;-59
2021/12/29 09:02:02;;;;;;;24.77;16.52;;;;;;;5.63;73.80;99825.16;5592277;31;33510;-59
2021/12/29 09:05:06;;;;;;;23.65;15.40;;;;;;;5.67;73.20;99822.78;5592316;31;33869;-58
